KFLY

Meadow Lake Airport

Colorado Springs, Colorado, USA
METAR KFLY 221735Z AUTO 14004KT 10SM CLR 21/03 A3007 RMK AO2 T02060026
Observed Flight Rules
May-22 @ 17:35 UTC (20 minutes ago) Visual Flight Rules
Wind Visibility Clouds
140° at 4 knots 10 miles
  • Clear skies
Temperatures Readings
Current 21°C / 70°F
Dewpoint 3°C / 37°F
Humidity 31%
Altimeter 30.07" Hg
Pressure 1018 hPa
Elevation 2096
METAR KFLY 221735Z AUTO 14004KT 10SM CLR 21/03 A3007 RMK AO2 T02060026
Observed Flight Rules
May-22 @ 17:35 UTC
(20 minutes ago)
VFR
Wind Visibility
140° at 4 knots 10 miles
Clouds
  • Clear skies
Temperature Dewpoint
21°C / 70°F 3°C / 37°F
Humidity Altimeter Pressure
31% 30.07" Hg 1018 hPa